Buchanan, Canada
Current Conditions -  °F | °C
As of 2:00 PM on Thursday 23 Oct 2014 (Local Time) from CYQV Reporting Station
Clear Clear  
Wind Chill: 55°   Ceiling: Unl
Heat Index: 55°   Visibility: 9mi
Dew Point: 41°   Wind: 8mph
Humidity: 58%   Direction: 170°S
Pressure: 29.67"   Gusts: NA
Location:  51.7°N, 102.75°W
Report Text: CYQV 232000Z AUTO 17007KT 9SM CLR 13/05 A2967 RMK SLP057 DENSITY ALT 2000FT
Loading
Personal Weather Stations






























Interactive Weather Map
Tropical Storm Tracking
New forecast layout! Learn more

10-Day Weather Forecast

Advertisements
Track Severe Weather on mobile